Time;durP1;ratioP1;P1;durP2;ratioP2;P2;SDS_P1;SDS_P2;PMS_P1;PMS_P2;Temp;Humidity;BMP_temperature;BMP_pressure;BME280_temperature;BME280_humidity;BME280_pressure;Samples;Min_cycle;Max_cycle;Signal;HPM_P1;HPM_P2
2021/12/14 00:02:17;;;;;;;3.50;3.20;;;;;;;;;;5055282;28;20677;-88
2021/12/14 00:04:44;;;;;;;3.15;2.85;;;;;;;;;;5073621;28;20261;-87
2021/12/14 00:07:12;;;;;;;3.60;3.10;;;;;;;;;;5073479;28;20180;-86
2021/12/14 00:09:40;;;;;;;4.85;3.22;;;;;;;;;;5073033;28;20172;-84
2021/12/14 00:12:29;;;;;;;4.22;3.22;;;;;;;;;;5073018;28;20535;-82
2021/12/14 00:15:04;;;;;;;3.47;3.10;;;;;;;;;;5073094;28;20159;-86
2021/12/14 00:17:44;;;;;;;3.40;3.08;;;;;;;;;;5076937;28;20245;-84
2021/12/14 00:20:14;;;;;;;4.13;3.40;;;;;;;;;;5079421;28;20172;-86
2021/12/14 00:25:25;;;;;;;4.20;3.03;;;;;;;;;;5077207;28;20169;-83
2021/12/14 00:27:51;;;;;;;3.13;2.83;;;;;;;;;;5077063;28;20263;-85
2021/12/14 00:30:17;;;;;;;4.85;4.10;;;;;;;;;;5076552;28;20702;-84
2021/12/14 00:32:43;;;;;;;3.90;3.50;;;;;;;;;;5076821;28;20262;-86
2021/12/14 00:35:11;;;;;;;4.63;3.70;;;;;;;;;;5076842;28;20172;-83
2021/12/14 00:37:38;;;;;;;4.22;3.83;;;;;;;;;;5076922;28;20803;-79
2021/12/14 00:40:13;;;;;;;4.55;3.25;;;;;;;;;;5076398;28;20187;-85
2021/12/14 00:42:39;;;;;;;4.57;4.07;;;;;;;;;;5076639;28;20180;-83
2021/12/14 00:45:05;;;;;;;4.38;3.90;;;;;;;;;;5076674;28;20240;-82
2021/12/14 00:47:31;;;;;;;5.97;4.32;;;;;;;;;;5058701;28;20181;-87
2021/12/14 00:49:58;;;;;;;5.07;3.67;;;;;;;;;;5076067;28;20230;-85
2021/12/14 00:52:24;;;;;;;5.20;4.25;;;;;;;;;;5058591;28;20724;-84
2021/12/14 00:54:50;;;;;;;6.22;4.47;;;;;;;;;;5076385;28;20222;-82
2021/12/14 00:57:16;;;;;;;4.38;3.85;;;;;;;;;;5076381;28;20171;-82
2021/12/14 00:59:42;;;;;;;5.32;4.13;;;;;;;;;;5076361;28;20222;-85
2021/12/14 01:02:19;;;;;;;4.90;4.40;;;;;;;;;;5076473;28;20204;-83
2021/12/14 01:04:51;;;;;;;6.63;5.00;;;;;;;;;;5076320;28;20212;-85
2021/12/14 01:07:19;;;;;;;4.68;4.00;;;;;;;;;;5076076;28;20320;-84
2021/12/14 01:09:46;;;;;;;4.97;4.20;;;;;;;;;;5075772;28;20173;-80
2021/12/14 01:12:20;;;;;;;5.68;4.45;;;;;;;;;;5076060;28;20200;-84
2021/12/14 01:14:59;;;;;;;5.68;4.50;;;;;;;;;;5058215;28;20211;-79
2021/12/14 01:17:28;;;;;;;4.60;3.80;;;;;;;;;;5076028;28;20625;-80
2021/12/14 01:19:57;;;;;;;5.15;4.13;;;;;;;;;;5057783;28;20180;-81
2021/12/14 01:25:14;;;;;;;5.35;4.68;;;;;;;;;;5076308;28;20165;-83
2021/12/14 01:27:43;;;;;;;5.05;4.55;;;;;;;;;;5057406;28;20679;-86
2021/12/14 01:30:16;;;;;;;7.85;5.20;;;;;;;;;;5075347;28;20208;-83
2021/12/14 01:32:45;;;;;;;5.35;4.55;;;;;;;;;;5057910;28;20176;-84
2021/12/14 01:35:13;;;;;;;4.75;4.15;;;;;;;;;;5075702;28;20169;-84
2021/12/14 01:37:46;;;;;;;5.38;4.82;;;;;;;;;;5075704;28;20219;-85
2021/12/14 01:40:19;;;;;;;5.05;4.05;;;;;;;;;;5075459;28;20190;-83
2021/12/14 01:42:46;;;;;;;5.80;4.95;;;;;;;;;;5075693;28;20227;-83
2021/12/14 01:45:18;;;;;;;5.75;5.00;;;;;;;;;;5075610;28;20207;-83
2021/12/14 01:48:03;;;;;;;5.35;4.85;;;;;;;;;;5075791;28;20173;-85
2021/12/14 01:50:34;;;;;;;6.90;5.65;;;;;;;;;;5075045;28;20545;-86
2021/12/14 01:53:00;;;;;;;8.05;5.50;;;;;;;;;;5075512;28;20170;-81
2021/12/14 01:55:29;;;;;;;7.80;5.32;;;;;;;;;;5057584;28;20177;-81
2021/12/14 01:57:56;;;;;;;6.43;5.80;;;;;;;;;;5075374;28;20203;-86
2021/12/14 02:00:26;;;;;;;5.47;4.97;;;;;;;;;;5074829;28;20201;-86
2021/12/14 02:02:53;;;;;;;6.85;5.38;;;;;;;;;;5075381;28;20180;-84
2021/12/14 02:05:26;;;;;;;7.00;5.85;;;;;;;;;;5057515;28;20181;-85
2021/12/14 02:07:52;;;;;;;6.95;5.95;;;;;;;;;;5075140;28;20209;-85
2021/12/14 02:10:22;;;;;;;7.18;5.25;;;;;;;;;;5074643;28;20262;-81
2021/12/14 02:12:48;;;;;;;7.85;5.55;;;;;;;;;;5075038;28;20175;-86
2021/12/14 02:15:35;;;;;;;8.23;6.00;;;;;;;;;;5075153;28;20259;-85
2021/12/14 02:18:02;;;;;;;7.35;5.72;;;;;;;;;;5056943;28;20519;-84
2021/12/14 02:20:31;;;;;;;6.88;5.65;;;;;;;;;;5056657;28;20215;-84
2021/12/14 02:22:58;;;;;;;8.02;6.03;;;;;;;;;;5074883;28;20266;-85
2021/12/14 02:25:24;;;;;;;9.32;6.50;;;;;;;;;;5074870;28;20237;-81
2021/12/14 02:27:51;;;;;;;9.60;6.30;;;;;;;;;;5056749;28;20227;-85
2021/12/14 02:30:21;;;;;;;8.93;6.30;;;;;;;;;;5056297;28;20216;-83
2021/12/14 02:32:47;;;;;;;7.03;5.80;;;;;;;;;;5074792;28;20609;-83
2021/12/14 02:35:16;;;;;;;6.22;5.50;;;;;;;;;;5074603;28;20179;-83
2021/12/14 02:37:44;;;;;;;7.22;5.70;;;;;;;;;;5074427;28;20216;-83
2021/12/14 02:40:30;;;;;;;10.68;7.15;;;;;;;;;;5073126;28;20199;-83
2021/12/14 02:42:57;;;;;;;8.88;6.70;;;;;;;;;;5074493;28;20166;-83
2021/12/14 02:45:23;;;;;;;5.70;5.10;;;;;;;;;;5076476;28;20204;-85
2021/12/14 02:47:50;;;;;;;7.60;5.53;;;;;;;;;;5057109;28;20249;-83
2021/12/14 02:50:17;;;;;;;9.70;6.82;;;;;;;;;;5073972;28;20217;-81
2021/12/14 02:52:43;;;;;;;8.95;6.28;;;;;;;;;;5074255;28;20167;-81
2021/12/14 02:55:14;;;;;;;7.97;6.00;;;;;;;;;;5074194;28;20181;-84
2021/12/14 02:57:43;;;;;;;10.20;7.45;;;;;;;;;;5077233;28;20211;-82
2021/12/14 03:00:11;;;;;;;9.32;6.95;;;;;;;;;;5073776;28;20180;-84
2021/12/14 03:02:37;;;;;;;8.98;6.50;;;;;;;;;;5074422;28;20277;-80
2021/12/14 03:05:05;;;;;;;10.15;6.85;;;;;;;;;;5056066;28;20648;-83
2021/12/14 03:07:33;;;;;;;11.70;7.55;;;;;;;;;;5073974;28;20263;-84
2021/12/14 03:12:48;;;;;;;12.98;8.15;;;;;;;;;;5073966;28;20173;-83
2021/12/14 03:15:16;;;;;;;9.32;7.43;;;;;;;;;;5056052;28;20275;-84
2021/12/14 03:17:43;;;;;;;11.32;8.43;;;;;;;;;;5073736;28;20172;-85
2021/12/14 03:20:09;;;;;;;12.50;8.82;;;;;;;;;;5073366;28;20634;-85
2021/12/14 03:22:44;;;;;;;13.30;8.85;;;;;;;;;;5073728;28;20248;-85
2021/12/14 03:25:13;;;;;;;12.60;8.65;;;;;;;;;;5073698;28;20190;-84
2021/12/14 03:27:40;;;;;;;13.10;9.85;;;;;;;;;;5073700;28;20542;-82
2021/12/14 03:30:13;;;;;;;15.00;9.25;;;;;;;;;;5072941;28;20569;-85
2021/12/14 03:32:39;;;;;;;15.07;8.50;;;;;;;;;;5073536;28;20528;-83
2021/12/14 03:35:05;;;;;;;12.48;9.23;;;;;;;;;;5073746;28;20270;-86
2021/12/14 03:37:31;;;;;;;15.20;9.07;;;;;;;;;;5055928;28;20542;-84
2021/12/14 03:40:01;;;;;;;13.85;9.02;;;;;;;;;;5073070;28;20235;-82
2021/12/14 03:42:36;;;;;;;9.35;7.55;;;;;;;;;;5055284;28;20218;-81
2021/12/14 03:45:04;;;;;;;14.70;8.90;;;;;;;;;;5073386;28;20184;-84
2021/12/14 03:47:32;;;;;;;14.38;8.75;;;;;;;;;;5055340;28;20179;-83
2021/12/14 03:50:02;;;;;;;14.77;9.52;;;;;;;;;;5054818;28;20670;-81
2021/12/14 03:52:32;;;;;;;13.32;9.00;;;;;;;;;;5055166;28;20191;-84
2021/12/14 03:55:00;;;;;;;14.07;9.18;;;;;;;;;;5073558;28;20225;-80
2021/12/14 03:57:26;;;;;;;21.48;10.73;;;;;;;;;;5073531;28;20247;-84
2021/12/14 03:59:52;;;;;;;12.70;8.50;;;;;;;;;;5072874;28;20174;-83
2021/12/14 04:02:18;;;;;;;16.45;10.05;;;;;;;;;;5073114;28;20215;-83
2021/12/14 04:04:50;;;;;;;15.45;10.05;;;;;;;;;;5073214;28;20179;-84
2021/12/14 04:07:17;;;;;;;12.35;9.70;;;;;;;;;;5055137;28;20234;-80
2021/12/14 04:09:43;;;;;;;15.15;9.65;;;;;;;;;;5072797;28;20182;-84
2021/12/14 04:12:13;;;;;;;17.10;10.73;;;;;;;;;;5073029;28;20202;-87
2021/12/14 04:14:44;;;;;;;14.32;9.90;;;;;;;;;;5073339;28;20169;-86
2021/12/14 04:17:11;;;;;;;13.77;9.48;;;;;;;;;;5073032;28;20656;-81
2021/12/14 04:19:39;;;;;;;15.25;9.45;;;;;;;;;;5073594;28;20178;-82
2021/12/14 04:22:07;;;;;;;13.00;9.27;;;;;;;;;;5074841;28;20571;-82
2021/12/14 04:24:36;;;;;;;13.48;9.20;;;;;;;;;;5072877;28;20179;-82
2021/12/14 04:27:04;;;;;;;13.13;8.75;;;;;;;;;;5073077;28;20177;-79
2021/12/14 04:29:30;;;;;;;15.13;9.57;;;;;;;;;;5072530;28;20165;-82
2021/12/14 04:31:56;;;;;;;14.57;9.15;;;;;;;;;;5072826;28;20211;-85
2021/12/14 04:34:22;;;;;;;16.35;9.30;;;;;;;;;;5072825;28;20221;-84
2021/12/14 04:36:51;;;;;;;12.98;8.90;;;;;;;;;;5072903;28;20188;-81
2021/12/14 04:53:04;;;;;;;14.10;8.98;;;;;;;;;;5072940;28;20219;-83
2021/12/14 04:55:30;;;;;;;13.07;8.52;;;;;;;;;;5072950;28;20176;-87
2021/12/14 04:57:56;;;;;;;22.77;9.82;;;;;;;;;;5054965;28;20185;-80
2021/12/14 05:00:35;;;;;;;18.10;9.88;;;;;;;;;;5072410;28;20257;-80
2021/12/14 05:03:03;;;;;;;19.67;10.25;;;;;;;;;;5075383;28;20184;-83
2021/12/14 05:05:32;;;;;;;17.73;8.50;;;;;;;;;;5076443;28;20216;-85
2021/12/14 05:10:41;;;;;;;15.13;8.98;;;;;;;;;;5076420;28;20573;-83
2021/12/14 05:13:07;;;;;;;22.35;10.10;;;;;;;;;;5078301;28;20169;-81
2021/12/14 05:15:36;;;;;;;21.30;9.85;;;;;;;;;;5076444;28;20530;-81
2021/12/14 05:18:08;;;;;;;19.60;11.40;;;;;;;;;;5058892;28;20190;-81
2021/12/14 05:20:34;;;;;;;21.75;12.10;;;;;;;;;;5075881;28;20601;-83
2021/12/14 05:23:18;;;;;;;19.50;11.95;;;;;;;;;;5078431;28;20662;-82
2021/12/14 05:25:44;;;;;;;21.85;10.25;;;;;;;;;;5078117;28;20232;-82
2021/12/14 05:28:14;;;;;;;24.77;10.75;;;;;;;;;;5058042;28;20184;-83
2021/12/14 05:30:42;;;;;;;19.05;10.23;;;;;;;;;;5072361;28;20209;-84
2021/12/14 05:33:13;;;;;;;20.63;11.65;;;;;;;;;;5075787;28;20233;-82
2021/12/14 05:35:40;;;;;;;23.42;10.35;;;;;;;;;;5057791;28;20272;-82
2021/12/14 05:38:10;;;;;;;17.00;9.85;;;;;;;;;;5075800;28;20177;-83
2021/12/14 05:43:11;;;;;;;23.65;13.00;;;;;;;;;;5058701;28;20513;-80
2021/12/14 05:45:43;;;;;;;23.73;13.85;;;;;;;;;;5057793;28;20172;-82
2021/12/14 05:48:11;;;;;;;25.70;13.43;;;;;;;;;;5075468;28;20185;-81
2021/12/14 05:50:42;;;;;;;24.85;12.80;;;;;;;;;;5075077;28;20212;-81
2021/12/14 05:53:08;;;;;;;27.17;12.95;;;;;;;;;;5075263;28;20166;-83
2021/12/14 05:55:36;;;;;;;24.83;12.35;;;;;;;;;;5075456;28;20262;-82
2021/12/14 05:58:03;;;;;;;23.90;11.88;;;;;;;;;;5075753;28;20175;-84
2021/12/14 06:00:30;;;;;;;24.90;12.93;;;;;;;;;;5075035;28;20586;-82
2021/12/14 06:02:56;;;;;;;22.08;12.45;;;;;;;;;;5075519;28;20173;-82
2021/12/14 06:05:23;;;;;;;23.92;13.18;;;;;;;;;;5075359;28;20187;-83
2021/12/14 06:07:50;;;;;;;23.77;11.10;;;;;;;;;;5056997;28;20186;-81
2021/12/14 06:10:18;;;;;;;25.08;13.20;;;;;;;;;;5074978;28;20234;-83
2021/12/14 06:12:44;;;;;;;21.98;12.85;;;;;;;;;;5066482;28;20269;-82
2021/12/14 06:15:13;;;;;;;25.65;13.35;;;;;;;;;;5054921;28;20173;-81
2021/12/14 06:17:40;;;;;;;24.40;13.55;;;;;;;;;;5054839;28;20537;-83
2021/12/14 06:20:15;;;;;;;27.13;12.90;;;;;;;;;;5037046;28;20184;-84
2021/12/14 06:22:41;;;;;;;25.98;13.13;;;;;;;;;;5054843;28;20177;-81
2021/12/14 06:25:10;;;;;;;20.73;12.70;;;;;;;;;;5054851;28;20190;-81
2021/12/14 06:27:36;;;;;;;27.85;13.07;;;;;;;;;;5054656;28;20178;-81
2021/12/14 06:30:05;;;;;;;23.90;12.70;;;;;;;;;;5020012;28;20209;-80
2021/12/14 06:32:33;;;;;;;27.75;12.60;;;;;;;;;;5036860;28;20536;-81
2021/12/14 06:35:06;;;;;;;23.25;14.10;;;;;;;;;;5054592;28;20173;-80
2021/12/14 06:40:10;;;;;;;24.50;13.07;;;;;;;;;;5054248;28;20165;-80
2021/12/14 06:42:43;;;;;;;29.45;13.85;;;;;;;;;;5054502;28;20175;-82
2021/12/14 06:45:11;;;;;;;28.05;13.00;;;;;;;;;;5054377;28;20629;-82
2021/12/14 06:47:38;;;;;;;21.23;12.05;;;;;;;;;;5054332;28;20167;-83
2021/12/14 06:50:06;;;;;;;23.17;11.10;;;;;;;;;;5054106;28;20245;-83
2021/12/14 06:52:32;;;;;;;16.20;10.82;;;;;;;;;;5054357;28;20657;-81
2021/12/14 06:54:58;;;;;;;25.27;10.88;;;;;;;;;;5054394;28;20181;-83
2021/12/14 06:57:24;;;;;;;17.30;10.67;;;;;;;;;;5054401;28;20263;-82
2021/12/14 06:59:53;;;;;;;17.92;10.25;;;;;;;;;;5054029;28;20468;-83
2021/12/14 07:02:21;;;;;;;18.40;10.35;;;;;;;;;;5054088;28;20209;-81
2021/12/14 07:04:49;;;;;;;17.80;10.35;;;;;;;;;;5054073;28;20174;-81
2021/12/14 07:07:17;;;;;;;12.60;8.90;;;;;;;;;;5019729;28;20186;-82
2021/12/14 07:09:45;;;;;;;17.08;9.10;;;;;;;;;;5053677;28;20263;-82
2021/12/14 07:12:15;;;;;;;17.58;10.35;;;;;;;;;;5054366;28;20193;-81
2021/12/14 07:15:02;;;;;;;15.07;9.35;;;;;;;;;;5054035;28;20174;-81
2021/12/14 07:17:30;;;;;;;17.65;9.38;;;;;;;;;;5073999;28;20706;-81
2021/12/14 07:20:21;;;;;;;16.95;9.98;;;;;;;;;;5073332;28;20187;-82
2021/12/14 07:22:52;;;;;;;17.80;9.85;;;;;;;;;;5044388;28;20183;-81
2021/12/14 07:25:24;;;;;;;13.27;9.10;;;;;;;;;;5073360;28;20203;-82
2021/12/14 07:27:50;;;;;;;17.80;9.00;;;;;;;;;;5073508;28;20573;-82
2021/12/14 07:30:16;;;;;;;17.03;9.40;;;;;;;;;;5073373;28;20206;-81
2021/12/14 07:32:44;;;;;;;17.60;10.23;;;;;;;;;;5073521;28;20410;-82
2021/12/14 07:35:19;;;;;;;15.77;9.63;;;;;;;;;;5073500;28;20217;-80
2021/12/14 07:37:45;;;;;;;12.52;8.60;;;;;;;;;;5073448;28;20174;-79
2021/12/14 07:40:13;;;;;;;18.33;8.43;;;;;;;;;;5073117;28;20209;-82
2021/12/14 07:42:40;;;;;;;18.10;8.30;;;;;;;;;;5073776;28;20177;-81
2021/12/14 07:45:06;;;;;;;13.52;8.73;;;;;;;;;;5073641;28;20224;-79
2021/12/14 07:47:32;;;;;;;15.90;8.73;;;;;;;;;;5074852;28;20183;-83
2021/12/14 07:49:59;;;;;;;14.13;8.70;;;;;;;;;;5073979;28;20179;-83
2021/12/14 07:52:28;;;;;;;12.95;8.80;;;;;;;;;;5073928;28;20172;-81
2021/12/14 07:55:05;;;;;;;13.18;8.95;;;;;;;;;;5073795;28;20172;-84
2021/12/14 07:57:34;;;;;;;12.07;7.90;;;;;;;;;;5073628;28;20605;-83
2021/12/14 08:00:20;;;;;;;11.50;8.60;;;;;;;;;;5073124;28;20177;-84
2021/12/14 08:02:56;;;;;;;11.73;7.63;;;;;;;;;;5073255;28;20180;-83
2021/12/14 08:05:28;;;;;;;12.43;8.73;;;;;;;;;;5073789;28;20161;-79
2021/12/14 08:07:59;;;;;;;10.85;7.80;;;;;;;;;;5055796;28;20184;-81
2021/12/14 08:10:30;;;;;;;17.58;9.52;;;;;;;;;;5073207;28;20196;-81
2021/12/14 08:12:56;;;;;;;13.00;7.60;;;;;;;;;;5055817;28;20172;-80
2021/12/14 08:15:25;;;;;;;16.83;7.37;;;;;;;;;;5073680;28;20580;-83
2021/12/14 08:18:03;;;;;;;8.48;6.22;;;;;;;;;;5073329;28;20417;-82
2021/12/14 08:20:29;;;;;;;13.32;6.68;;;;;;;;;;5073106;28;20192;-81
2021/12/14 08:22:57;;;;;;;10.20;6.50;;;;;;;;;;5073422;28;20180;-81
2021/12/14 08:25:28;;;;;;;10.25;6.47;;;;;;;;;;5055472;28;20171;-80
2021/12/14 08:28:02;;;;;;;13.05;7.07;;;;;;;;;;5073671;28;20218;-82
2021/12/14 08:30:29;;;;;;;11.10;6.85;;;;;;;;;;5072819;28;20550;-79
2021/12/14 08:32:57;;;;;;;13.55;6.53;;;;;;;;;;5073454;28;20318;-79
2021/12/14 08:35:24;;;;;;;8.50;6.32;;;;;;;;;;5073406;28;20172;-79
2021/12/14 08:37:54;;;;;;;7.72;5.75;;;;;;;;;;5074810;28;20638;-79
2021/12/14 08:40:23;;;;;;;10.90;6.90;;;;;;;;;;5076987;28;20228;-80
2021/12/14 08:43:09;;;;;;;8.98;6.07;;;;;;;;;;5076918;28;20266;-82
2021/12/14 08:45:39;;;;;;;9.82;6.07;;;;;;;;;;5077381;28;20566;-81
2021/12/14 08:48:07;;;;;;;11.30;7.55;;;;;;;;;;5077120;28;20178;-80
2021/12/14 08:50:47;;;;;;;9.90;5.90;;;;;;;;;;5076584;28;20744;-82
2021/12/14 08:53:14;;;;;;;8.93;5.38;;;;;;;;;;5076962;28;20178;-83
2021/12/14 08:55:43;;;;;;;7.30;5.78;;;;;;;;;;5059202;28;20191;-83
2021/12/14 08:58:10;;;;;;;12.05;7.10;;;;;;;;;;5076785;28;20164;-80
2021/12/14 09:00:41;;;;;;;8.77;5.40;;;;;;;;;;5076086;28;20740;-80
2021/12/14 09:03:09;;;;;;;7.95;4.95;;;;;;;;;;5076712;28;20183;-81
2021/12/14 09:05:41;;;;;;;9.48;5.25;;;;;;;;;;5076434;28;20584;-81
2021/12/14 09:08:07;;;;;;;9.32;5.78;;;;;;;;;;5076405;28;20249;-82
2021/12/14 09:10:35;;;;;;;8.20;6.05;;;;;;;;;;5075869;28;20209;-83
2021/12/14 09:13:04;;;;;;;9.90;5.25;;;;;;;;;;5058422;28;20183;-82
2021/12/14 09:15:32;;;;;;;7.47;5.68;;;;;;;;;;5076407;28;20179;-83
2021/12/14 09:17:59;;;;;;;5.93;4.47;;;;;;;;;;5076442;28;20228;-81
2021/12/14 09:20:35;;;;;;;8.95;4.70;;;;;;;;;;5075969;28;20196;-79
2021/12/14 09:23:06;;;;;;;7.10;5.35;;;;;;;;;;5076204;28;20235;-82
2021/12/14 09:25:33;;;;;;;7.55;5.15;;;;;;;;;;5076549;28;20631;-84
2021/12/14 09:28:00;;;;;;;7.25;4.60;;;;;;;;;;5075989;28;20192;-81
2021/12/14 09:30:28;;;;;;;6.40;4.75;;;;;;;;;;5075627;28;20295;-80
2021/12/14 09:32:55;;;;;;;8.80;5.30;;;;;;;;;;5075949;28;20176;-80
2021/12/14 09:35:22;;;;;;;7.80;5.25;;;;;;;;;;5075912;28;20199;-82
2021/12/14 09:37:49;;;;;;;8.07;4.85;;;;;;;;;;5075674;28;20632;-79
2021/12/14 09:40:19;;;;;;;7.68;4.38;;;;;;;;;;5075618;28;20177;-83
2021/12/14 09:42:46;;;;;;;11.00;5.07;;;;;;;;;;5076202;28;20171;-80
2021/12/14 09:45:22;;;;;;;7.18;4.78;;;;;;;;;;5076068;28;20183;-84
2021/12/14 09:47:49;;;;;;;9.13;5.07;;;;;;;;;;5075636;28;20206;-82
2021/12/14 09:50:19;;;;;;;8.52;4.65;;;;;;;;;;5075668;28;20722;-82
2021/12/14 09:52:47;;;;;;;8.18;5.00;;;;;;;;;;5075985;28;20229;-83
2021/12/14 09:55:15;;;;;;;12.98;5.22;;;;;;;;;;5075861;28;20171;-83
2021/12/14 09:57:45;;;;;;;6.63;4.90;;;;;;;;;;5075771;28;20177;-80
2021/12/14 10:00:16;;;;;;;8.48;5.45;;;;;;;;;;5075819;28;20270;-79
2021/12/14 10:02:43;;;;;;;8.38;5.32;;;;;;;;;;5075951;28;20211;-83
2021/12/14 10:05:18;;;;;;;8.75;5.47;;;;;;;;;;5075591;28;20307;-83
2021/12/14 10:07:46;;;;;;;9.02;5.75;;;;;;;;;;5076425;28;20180;-84
2021/12/14 10:10:14;;;;;;;9.07;4.60;;;;;;;;;;5058084;28;20242;-83
2021/12/14 10:12:49;;;;;;;7.10;5.50;;;;;;;;;;5058027;28;20169;-81
2021/12/14 10:15:18;;;;;;;8.93;5.88;;;;;;;;;;5075239;28;20538;-79
2021/12/14 10:17:45;;;;;;;9.77;5.70;;;;;;;;;;5075083;28;20244;-79
2021/12/14 10:20:13;;;;;;;10.63;6.00;;;;;;;;;;5057249;28;20184;-80
2021/12/14 10:22:39;;;;;;;10.93;6.43;;;;;;;;;;5057293;28;20629;-81
2021/12/14 10:25:09;;;;;;;9.77;5.57;;;;;;;;;;5075164;28;20263;-82
2021/12/14 10:27:35;;;;;;;10.95;7.43;;;;;;;;;;5075351;28;20187;-82
2021/12/14 10:30:04;;;;;;;9.82;6.68;;;;;;;;;;5057148;28;20173;-79
2021/12/14 10:32:33;;;;;;;11.63;7.35;;;;;;;;;;5075869;28;20171;-83
2021/12/14 10:35:01;;;;;;;8.55;5.90;;;;;;;;;;5075666;28;20259;-81
2021/12/14 10:43:21;;;;;;;7.75;5.40;;;;;;;;;;5075902;28;20187;-84
2021/12/14 10:45:58;;;;;;;14.25;6.30;;;;;;;;;;5075512;28;20268;-84
2021/12/14 10:48:27;;;;;;;9.98;6.95;;;;;;;;;;5075695;28;20175;-80
2021/12/14 10:50:55;;;;;;;9.80;7.13;;;;;;;;;;5075662;28;20235;-81
2021/12/14 10:53:22;;;;;;;9.57;6.90;;;;;;;;;;5075922;28;20207;-81
2021/12/14 10:56:12;;;;;;;10.60;6.63;;;;;;;;;;5057821;28;20181;-80
2021/12/14 10:58:38;;;;;;;13.95;7.15;;;;;;;;;;5076115;28;20172;-84
2021/12/14 11:01:29;;;;;;;10.63;7.13;;;;;;;;;;5074140;28;20600;-82
2021/12/14 11:03:57;;;;;;;8.57;6.60;;;;;;;;;;5075414;28;20244;-83
2021/12/14 11:06:28;;;;;;;14.25;7.13;;;;;;;;;;5075178;28;20173;-80
2021/12/14 11:11:28;;;;;;;9.02;6.20;;;;;;;;;;5075123;28;20212;-81
2021/12/14 11:14:00;;;;;;;12.40;7.80;;;;;;;;;;5076017;28;20175;-81
2021/12/14 11:18:08;;;;;;;9.60;6.47;;;;;;;;;;5076412;28;20177;-82
2021/12/14 11:19:18;;;;;;;11.55;8.25;;;;;;;;;;5074763;28;20185;-83
2021/12/14 11:21:44;;;;;;;11.20;7.70;;;;;;;;;;5075702;28;20207;-81
2021/12/14 11:24:10;;;;;;;13.60;8.63;;;;;;;;;;5075325;28;20199;-80
2021/12/14 11:26:36;;;;;;;12.13;8.23;;;;;;;;;;5057874;28;20181;-83
2021/12/14 11:29:15;;;;;;;10.93;7.53;;;;;;;;;;5075429;28;20176;-81
2021/12/14 11:31:43;;;;;;;11.20;7.75;;;;;;;;;;5075377;28;20204;-83
2021/12/14 11:34:12;;;;;;;12.75;7.55;;;;;;;;;;5075295;28;20174;-81
2021/12/14 11:36:40;;;;;;;12.55;7.57;;;;;;;;;;5075474;28;20173;-80
2021/12/14 11:39:23;;;;;;;9.65;7.63;;;;;;;;;;5075636;28;20169;-80
2021/12/14 11:41:50;;;;;;;17.20;8.65;;;;;;;;;;5074479;28;20215;-80
2021/12/14 11:44:24;;;;;;;10.73;8.52;;;;;;;;;;5075107;28;20177;-81
2021/12/14 11:46:55;;;;;;;12.02;8.65;;;;;;;;;;5057444;28;20668;-81
2021/12/14 11:49:22;;;;;;;24.05;19.23;;;;;;;;;;5057129;28;20595;-80
2021/12/14 11:51:48;;;;;;;15.77;9.30;;;;;;;;;;5075130;28;20293;-83
2021/12/14 11:54:19;;;;;;;10.90;7.72;;;;;;;;;;5057442;28;20570;-82
2021/12/14 11:56:46;;;;;;;10.65;7.38;;;;;;;;;;5075186;28;20505;-81
2021/12/14 11:59:12;;;;;;;15.35;7.00;;;;;;;;;;5074755;28;20173;-81
2021/12/14 12:01:41;;;;;;;11.55;8.20;;;;;;;;;;5074953;28;20311;-83
2021/12/14 12:04:09;;;;;;;15.23;7.45;;;;;;;;;;5075222;28;20181;-80
2021/12/14 12:09:28;;;;;;;11.73;7.30;;;;;;;;;;5075212;28;20650;-84
2021/12/14 12:11:56;;;;;;;13.15;7.95;;;;;;;;;;5056915;28;20253;-81
2021/12/14 12:14:37;;;;;;;12.20;8.30;;;;;;;;;;5075030;28;20250;-83
2021/12/14 12:17:32;;;;;;;11.50;7.97;;;;;;;;;;5075357;28;20283;-81
2021/12/14 12:20:07;;;;;;;16.88;8.27;;;;;;;;;;5054038;28;20217;-84
2021/12/14 12:22:36;;;;;;;12.35;7.80;;;;;;;;;;5075823;28;20536;-81
2021/12/14 12:25:04;;;;;;;12.27;8.57;;;;;;;;;;5076178;28;20196;-82
2021/12/14 12:27:35;;;;;;;12.95;9.35;;;;;;;;;;5057598;28;20184;-81
2021/12/14 12:30:38;;;;;;;13.98;9.18;;;;;;;;;;5073963;28;20517;-83
2021/12/14 12:33:03;;;;;;;15.07;9.20;;;;;;;;;;5074947;28;20160;-85
2021/12/14 12:35:59;;;;;;;13.47;9.23;;;;;;;;;;5074532;28;20529;-80
2021/12/14 12:38:41;;;;;;;12.70;8.30;;;;;;;;;;4986735;28;20530;-81
2021/12/14 12:41:24;;;;;;;14.65;8.85;;;;;;;;;;5074829;28;20193;-83
2021/12/14 12:43:56;;;;;;;12.40;8.23;;;;;;;;;;5074069;28;20276;-82
2021/12/14 12:46:24;;;;;;;13.15;8.63;;;;;;;;;;5073739;28;20516;-82
2021/12/14 12:48:52;;;;;;;14.50;9.38;;;;;;;;;;5055266;28;20546;-83
2021/12/14 12:51:55;;;;;;;12.77;8.32;;;;;;;;;;5072965;28;20226;-83
2021/12/14 12:54:39;;;;;;;12.40;8.93;;;;;;;;;;4972469;28;20243;-80
2021/12/14 12:57:11;;;;;;;17.33;9.45;;;;;;;;;;5048688;28;20204;-83
2021/12/14 12:59:44;;;;;;;15.10;8.55;;;;;;;;;;5073023;28;20534;-81
2021/12/14 13:02:17;;;;;;;13.90;9.00;;;;;;;;;;5073472;28;20212;-84
2021/12/14 13:04:44;;;;;;;12.27;9.00;;;;;;;;;;5073433;28;20180;-81
2021/12/14 13:07:10;;;;;;;15.07;8.38;;;;;;;;;;5073712;28;20232;-82
2021/12/14 13:10:05;;;;;;;13.52;8.07;;;;;;;;;;5073085;28;20180;-81
2021/12/14 13:12:47;;;;;;;14.38;9.32;;;;;;;;;;5051963;28;20563;-82
2021/12/14 13:15:31;;;;;;;11.00;7.88;;;;;;;;;;5073558;28;20231;-84
2021/12/14 13:18:17;;;;;;;14.05;8.32;;;;;;;;;;5072958;28;20208;-85
2021/12/14 13:20:44;;;;;;;14.60;8.70;;;;;;;;;;5072357;28;20227;-81
2021/12/14 13:23:10;;;;;;;13.70;9.05;;;;;;;;;;5073407;28;20173;-83
2021/12/14 13:25:37;;;;;;;11.45;9.15;;;;;;;;;;5076356;28;20175;-83
2021/12/14 13:28:03;;;;;;;13.18;8.82;;;;;;;;;;5058641;28;20170;-82
2021/12/14 13:30:30;;;;;;;11.52;8.30;;;;;;;;;;5075410;28;20291;-82
2021/12/14 13:32:56;;;;;;;16.75;8.65;;;;;;;;;;5076220;28;20173;-83
2021/12/14 13:35:24;;;;;;;11.77;8.40;;;;;;;;;;5076117;28;20181;-82
2021/12/14 13:37:56;;;;;;;15.20;8.63;;;;;;;;;;5076015;28;20177;-82
2021/12/14 13:40:42;;;;;;;10.00;8.27;;;;;;;;;;5075713;28;20227;-83
2021/12/14 13:43:10;;;;;;;12.32;8.13;;;;;;;;;;5075215;28;20199;-82
2021/12/14 13:45:42;;;;;;;10.55;8.07;;;;;;;;;;5075687;28;20179;-84
2021/12/14 13:48:09;;;;;;;13.02;8.20;;;;;;;;;;5075644;28;20181;-82
2021/12/14 13:50:40;;;;;;;11.90;8.52;;;;;;;;;;5057195;28;20212;-81
2021/12/14 13:53:07;;;;;;;14.30;8.65;;;;;;;;;;5075546;28;20226;-82
2021/12/14 13:55:35;;;;;;;14.73;9.65;;;;;;;;;;5075370;28;20243;-83
2021/12/14 13:58:16;;;;;;;12.35;9.05;;;;;;;;;;5057455;28;20657;-84
2021/12/14 14:00:47;;;;;;;15.18;9.35;;;;;;;;;;5056924;28;20208;-84
2021/12/14 14:03:14;;;;;;;10.75;8.00;;;;;;;;;;5075341;28;20177;-82
2021/12/14 14:05:42;;;;;;;11.77;8.60;;;;;;;;;;5057533;28;20192;-81
2021/12/14 14:08:10;;;;;;;14.55;9.10;;;;;;;;;;5075352;28;20172;-83
2021/12/14 14:10:36;;;;;;;12.63;9.07;;;;;;;;;;5074686;28;20208;-80
2021/12/14 14:13:08;;;;;;;12.80;9.30;;;;;;;;;;5074969;28;20176;-82
2021/12/14 14:15:35;;;;;;;17.17;9.80;;;;;;;;;;5075110;28;20173;-83
2021/12/14 14:18:02;;;;;;;13.48;9.43;;;;;;;;;;5075155;28;20251;-81
2021/12/14 14:20:38;;;;;;;12.25;9.20;;;;;;;;;;5074837;28;20214;-81
2021/12/14 14:23:09;;;;;;;13.70;8.80;;;;;;;;;;5075136;28;20574;-83
2021/12/14 14:25:36;;;;;;;12.38;7.78;;;;;;;;;;5074991;28;20185;-82
2021/12/14 14:28:03;;;;;;;10.52;7.85;;;;;;;;;;5075094;28;20642;-84
2021/12/14 14:30:32;;;;;;;12.70;9.07;;;;;;;;;;5056384;28;20262;-80
2021/12/14 14:33:12;;;;;;;14.10;8.52;;;;;;;;;;5074652;28;20255;-80
2021/12/14 14:35:57;;;;;;;13.02;9.07;;;;;;;;;;5073591;28;20571;-84
2021/12/14 14:38:26;;;;;;;16.50;8.00;;;;;;;;;;5074679;28;20164;-83
2021/12/14 14:40:56;;;;;;;11.18;8.00;;;;;;;;;;5056300;28;20690;-83
2021/12/14 14:43:22;;;;;;;10.27;8.55;;;;;;;;;;5074532;28;20176;-83
2021/12/14 14:45:48;;;;;;;13.85;9.25;;;;;;;;;;5074588;28;20199;-81
2021/12/14 14:48:25;;;;;;;16.83;8.40;;;;;;;;;;5074461;28;20179;-83
2021/12/14 14:50:51;;;;;;;11.00;8.55;;;;;;;;;;5073996;28;20834;-83
2021/12/14 14:53:20;;;;;;;10.90;8.27;;;;;;;;;;5074234;28;20199;-83
2021/12/14 14:55:55;;;;;;;22.60;8.85;;;;;;;;;;5056458;28;20180;-82
2021/12/14 14:58:22;;;;;;;16.08;9.38;;;;;;;;;;5074430;28;20172;-81
2021/12/14 15:01:11;;;;;;;11.35;8.77;;;;;;;;;;5073681;28;20219;-80
2021/12/14 15:03:46;;;;;;;12.27;7.25;;;;;;;;;;5047506;28;20195;-81
2021/12/14 15:06:12;;;;;;;11.90;7.32;;;;;;;;;;5074027;28;20172;-82
2021/12/14 15:08:41;;;;;;;17.88;8.07;;;;;;;;;;5073936;28;20177;-79
2021/12/14 15:11:10;;;;;;;12.02;7.65;;;;;;;;;;5073393;28;20283;-81
2021/12/14 15:13:54;;;;;;;11.40;8.15;;;;;;;;;;5073755;28;20550;-83
2021/12/14 15:16:23;;;;;;;10.35;7.93;;;;;;;;;;5073987;28;20211;-80
2021/12/14 15:18:53;;;;;;;13.27;8.75;;;;;;;;;;5073816;28;20177;-83
2021/12/14 15:21:25;;;;;;;15.15;8.00;;;;;;;;;;5073219;28;20196;-81
2021/12/14 15:23:51;;;;;;;13.80;8.40;;;;;;;;;;5073893;28;20543;-80
2021/12/14 15:26:18;;;;;;;24.08;10.50;;;;;;;;;;5055924;28;20603;-83
2021/12/14 15:28:44;;;;;;;21.85;12.50;;;;;;;;;;5073644;28;20192;-83
2021/12/14 15:31:14;;;;;;;25.70;16.50;;;;;;;;;;5073222;28;20204;-81
2021/12/14 15:33:48;;;;;;;21.55;12.10;;;;;;;;;;5073700;28;20580;-82